< Cyclone 199602 1996 Season Cyclone 199604 >
Cyclone 199603 (FRANK)
General InformationDetailed Track InformationTrack Information on Google MapsList of All Images || ResourceGoogle EarthGE AnimationAtom FeedGeoJSON
Detalied Best Track Wind (Time Zone = UTC)
Year Month Day Hour Lat. Long. Wind (kt) Gust (kt) Direc. of Major Storm Axis Radius of Major Storm Axis (nm) Radius of Minor Storm Axis (nm) Direc. of Major Gale Axis Radius of Major Gale Axis (nm) Radius of Minor Gale Axis (nm) Image
1995 12 6 04 -10.3 116.8 19 -1 symmetric - - symmetric - - Image
1995 12 6 07 -10.4 117.0 21 -1 symmetric - - symmetric - - Image
1995 12 6 10 -10.6 117.3 23 -1 symmetric - - symmetric - - Image
1995 12 6 13 -10.8 117.6 23 -1 symmetric - - symmetric - - Image
1995 12 6 16 -11.0 117.9 27 -1 symmetric - - symmetric - - Image
1995 12 6 19 -11.2 118.1 29 -1 symmetric - - symmetric - - Image
1995 12 6 22 -11.4 118.5 33 -1 symmetric - - symmetric - - Image
1995 12 7 01 -11.7 118.7 33 -1 symmetric - - symmetric - - Image
1995 12 7 04 -12.2 118.8 35 -1 symmetric - - symmetric - - Image
1995 12 7 07 -12.5 118.8 35 -1 symmetric - - symmetric - - Image
1995 12 7 10 -12.8 118.7 35 -1 symmetric - - symmetric - - Image
1995 12 7 13 -13.0 118.6 41 -1 symmetric - - symmetric - - Image
1995 12 7 16 -13.3 118.4 41 -1 symmetric - - symmetric - - Image
1995 12 7 19 -13.5 118.2 41 -1 symmetric - - symmetric - - Image
1995 12 7 22 -13.7 117.9 47 -1 symmetric - - symmetric - - Image
1995 12 8 01 -14.0 117.7 47 -1 symmetric - - symmetric - - Image
1995 12 8 04 -14.2 117.5 47 -1 symmetric - - symmetric - - Image
1995 12 8 07 -14.6 117.3 54 -1 symmetric - - symmetric - - Image
1995 12 8 10 -15.0 117.0 54 -1 symmetric - - symmetric - - Image
1995 12 8 13 -15.3 116.8 60 -1 symmetric - - symmetric - - Image
1995 12 8 16 -15.5 116.6 60 -1 symmetric - - symmetric - - Image
1995 12 8 19 -15.8 116.4 66 -1 symmetric - - symmetric - - Image
1995 12 8 22 -16.1 116.2 70 -1 symmetric - - symmetric - - Image
1995 12 9 01 -16.4 116.0 70 -1 symmetric - - symmetric - - Image
1995 12 9 04 -16.9 115.7 70 -1 symmetric - - symmetric - - Image
1995 12 9 07 -17.2 115.7 76 -1 symmetric - - symmetric - - Image
1995 12 9 10 -17.6 115.6 80 -1 symmetric - - symmetric - - Image
1995 12 9 13 -18.0 115.4 80 -1 symmetric - - symmetric - - Image
1995 12 9 16 -18.3 115.3 80 -1 symmetric - - symmetric - - Image
1995 12 9 19 -18.5 115.2 80 -1 symmetric - - symmetric - - Image
1995 12 9 22 -18.8 115.1 84 -1 symmetric - - symmetric - - Image
1995 12 10 01 -19.2 114.9 84 -1 symmetric - - symmetric - - Image
1995 12 10 04 -19.5 114.7 84 -1 symmetric - - symmetric - - Image
1995 12 10 07 -19.7 114.6 84 -1 symmetric - - symmetric - - Image
1995 12 10 10 -19.9 114.5 80 -1 symmetric - - symmetric - - Image
1995 12 10 13 -20.0 114.3 76 -1 symmetric - - symmetric - - Image
1995 12 10 16 -20.1 114.2 70 -1 symmetric - - symmetric - - Image
1995 12 10 19 -20.3 114.2 70 -1 symmetric - - symmetric - - Image
1995 12 10 22 -20.6 114.1 70 -1 symmetric - - symmetric - - Image
1995 12 11 01 -20.8 113.9 70 -1 symmetric - - symmetric - - Image
1995 12 11 04 -21.0 113.7 70 -1 symmetric - - symmetric - - Image
1995 12 11 07 -21.3 113.4 70 -1 symmetric - - symmetric - - Image
1995 12 11 10 -21.6 113.2 70 -1 symmetric - - symmetric - - Image
1995 12 11 13 -21.8 113.0 66 -1 symmetric - - symmetric - - Image
1995 12 11 16 -22.0 112.9 66 -1 symmetric - - symmetric - - Image
1995 12 11 19 -22.3 112.8 60 -1 symmetric - - symmetric - - Image
1995 12 11 22 -22.6 112.8 54 -1 symmetric - - symmetric - - Image
1995 12 12 01 -22.8 112.8 47 -1 symmetric - - symmetric - - Image
1995 12 12 04 -23.1 112.8 47 -1 symmetric - - symmetric - - Image
1995 12 12 07 -23.5 112.9 41 -1 symmetric - - symmetric - - Image
1995 12 12 10 -23.9 113.1 41 -1 symmetric - - symmetric - - Image
1995 12 12 13 -24.4 113.3 35 -1 symmetric - - symmetric - - Image
1995 12 12 16 -24.8 113.6 35 -1 symmetric - - symmetric - - Image
1995 12 12 19 -25.3 113.8 29 -1 symmetric - - symmetric - - Image
1995 12 12 22 -25.7 114.1 29 -1 symmetric - - symmetric - - Image
1995 12 13 01 -26.1 114.4 27 -1 symmetric - - symmetric - - Image
1995 12 13 07 -27.1 115.5 27 -1 symmetric - - symmetric - - Image
< Cyclone 199602 1996 Season Cyclone 199604 >

Help